sensor_id;sensor_type;location;lat;lon;timestamp;temperature;humidity
19610;DHT22;9952;47.122;-1.638;2023-03-25T00:03:09;11.70;99.90
19610;DHT22;9952;47.122;-1.638;2023-03-25T00:07:51;11.80;99.90
19610;DHT22;9952;47.122;-1.638;2023-03-25T00:12:32;11.80;99.90
19610;DHT22;9952;47.122;-1.638;2023-03-25T00:17:13;11.80;99.90
19610;DHT22;9952;47.122;-1.638;2023-03-25T00:21:56;11.70;99.90
19610;DHT22;9952;47.122;-1.638;2023-03-25T00:26:38;11.30;99.90
19610;DHT22;9952;47.122;-1.638;2023-03-25T00:31:23;11.00;99.90
19610;DHT22;9952;47.122;-1.638;2023-03-25T00:36:04;10.70;99.90
19610;DHT22;9952;47.122;-1.638;2023-03-25T00:40:45;10.50;99.90
19610;DHT22;9952;47.122;-1.638;2023-03-25T00:45:29;10.40;99.90
19610;DHT22;9952;47.122;-1.638;2023-03-25T00:50:10;10.40;99.90
19610;DHT22;9952;47.122;-1.638;2023-03-25T00:54:51;10.30;99.90
19610;DHT22;9952;47.122;-1.638;2023-03-25T00:59:33;10.30;99.90
19610;DHT22;9952;47.122;-1.638;2023-03-25T01:04:14;10.20;99.90
19610;DHT22;9952;47.122;-1.638;2023-03-25T01:08:57;10.30;99.90
19610;DHT22;9952;47.122;-1.638;2023-03-25T01:13:38;10.30;99.90
19610;DHT22;9952;47.122;-1.638;2023-03-25T01:18:19;10.30;99.90
19610;DHT22;9952;47.122;-1.638;2023-03-25T01:22:59;10.30;99.90
19610;DHT22;9952;47.122;-1.638;2023-03-25T01:27:40;10.40;99.90
19610;DHT22;9952;47.122;-1.638;2023-03-25T01:32:21;10.40;99.90
19610;DHT22;9952;47.122;-1.638;2023-03-25T01:37:02;10.50;99.90
19610;DHT22;9952;47.122;-1.638;2023-03-25T01:41:46;10.50;99.90
19610;DHT22;9952;47.122;-1.638;2023-03-25T01:46:26;10.50;99.90
19610;DHT22;9952;47.122;-1.638;2023-03-25T01:51:15;10.50;99.90
19610;DHT22;9952;47.122;-1.638;2023-03-25T01:56:00;10.50;99.90
19610;DHT22;9952;47.122;-1.638;2023-03-25T02:00:44;10.50;99.90
19610;DHT22;9952;47.122;-1.638;2023-03-25T02:06:19;10.40;99.90
19610;DHT22;9952;47.122;-1.638;2023-03-25T02:10:35;10.40;99.90
19610;DHT22;9952;47.122;-1.638;2023-03-25T02:15:17;10.40;99.90
19610;DHT22;9952;47.122;-1.638;2023-03-25T02:35:14;10.50;99.90
19610;DHT22;9952;47.122;-1.638;2023-03-25T02:40:06;10.50;99.90
19610;DHT22;9952;47.122;-1.638;2023-03-25T02:45:07;10.60;99.90
19610;DHT22;9952;47.122;-1.638;2023-03-25T02:49:56;10.60;99.90
19610;DHT22;9952;47.122;-1.638;2023-03-25T02:54:39;10.60;99.90
19610;DHT22;9952;47.122;-1.638;2023-03-25T02:59:21;10.60;99.90
19610;DHT22;9952;47.122;-1.638;2023-03-25T03:04:02;10.50;99.90
19610;DHT22;9952;47.122;-1.638;2023-03-25T03:23:28;10.70;99.90
19610;DHT22;9952;47.122;-1.638;2023-03-25T03:28:44;10.80;99.90
19610;DHT22;9952;47.122;-1.638;2023-03-25T03:33:48;10.80;99.90
19610;DHT22;9952;47.122;-1.638;2023-03-25T03:39:00;10.90;99.90
19610;DHT22;9952;47.122;-1.638;2023-03-25T03:43:59;10.90;99.90
19610;DHT22;9952;47.122;-1.638;2023-03-25T03:48:51;10.90;99.90
19610;DHT22;9952;47.122;-1.638;2023-03-25T03:53:41;10.90;99.90
19610;DHT22;9952;47.122;-1.638;2023-03-25T03:58:31;10.90;99.90
19610;DHT22;9952;47.122;-1.638;2023-03-25T04:03:26;10.80;99.90
19610;DHT22;9952;47.122;-1.638;2023-03-25T04:08:13;10.70;99.90
19610;DHT22;9952;47.122;-1.638;2023-03-25T04:13:03;10.70;99.90
19610;DHT22;9952;47.122;-1.638;2023-03-25T04:17:45;10.70;99.90
19610;DHT22;9952;47.122;-1.638;2023-03-25T04:22:27;10.70;99.90
19610;DHT22;9952;47.122;-1.638;2023-03-25T04:27:08;10.70;99.90
19610;DHT22;9952;47.122;-1.638;2023-03-25T04:31:53;10.80;99.90
19610;DHT22;9952;47.122;-1.638;2023-03-25T04:36:35;10.70;99.90
19610;DHT22;9952;47.122;-1.638;2023-03-25T04:41:22;10.70;99.90
19610;DHT22;9952;47.122;-1.638;2023-03-25T04:46:03;10.70;99.90
19610;DHT22;9952;47.122;-1.638;2023-03-25T04:50:44;10.70;99.90
19610;DHT22;9952;47.122;-1.638;2023-03-25T04:55:25;10.70;99.90
19610;DHT22;9952;47.122;-1.638;2023-03-25T05:00:06;10.60;99.90
19610;DHT22;9952;47.122;-1.638;2023-03-25T05:04:48;10.60;99.90
19610;DHT22;9952;47.122;-1.638;2023-03-25T05:09:29;10.60;99.90
19610;DHT22;9952;47.122;-1.638;2023-03-25T05:14:13;10.60;99.90
19610;DHT22;9952;47.122;-1.638;2023-03-25T05:18:54;10.60;99.90
19610;DHT22;9952;47.122;-1.638;2023-03-25T05:23:35;10.60;99.90
19610;DHT22;9952;47.122;-1.638;2023-03-25T05:28:17;10.60;99.90
19610;DHT22;9952;47.122;-1.638;2023-03-25T05:32:58;10.60;99.90
19610;DHT22;9952;47.122;-1.638;2023-03-25T05:37:39;10.70;99.90
19610;DHT22;9952;47.122;-1.638;2023-03-25T05:42:20;10.60;99.90
19610;DHT22;9952;47.122;-1.638;2023-03-25T05:47:04;10.70;99.90
19610;DHT22;9952;47.122;-1.638;2023-03-25T05:51:45;10.80;99.90
19610;DHT22;9952;47.122;-1.638;2023-03-25T05:56:29;10.90;99.90
19610;DHT22;9952;47.122;-1.638;2023-03-25T06:01:10;10.90;99.90
19610;DHT22;9952;47.122;-1.638;2023-03-25T06:05:55;10.80;99.90
19610;DHT22;9952;47.122;-1.638;2023-03-25T06:10:36;10.70;99.90
19610;DHT22;9952;47.122;-1.638;2023-03-25T06:15:16;10.60;99.90
19610;DHT22;9952;47.122;-1.638;2023-03-25T06:19:58;10.60;99.90
19610;DHT22;9952;47.122;-1.638;2023-03-25T06:24:41;10.50;99.90
19610;DHT22;9952;47.122;-1.638;2023-03-25T06:29:21;10.50;99.90
19610;DHT22;9952;47.122;-1.638;2023-03-25T06:34:02;10.50;99.90
19610;DHT22;9952;47.122;-1.638;2023-03-25T06:38:44;10.40;99.90
19610;DHT22;9952;47.122;-1.638;2023-03-25T06:43:25;10.40;99.90
19610;DHT22;9952;47.122;-1.638;2023-03-25T06:48:07;10.30;99.90
19610;DHT22;9952;47.122;-1.638;2023-03-25T06:52:48;10.40;99.90
19610;DHT22;9952;47.122;-1.638;2023-03-25T06:57:29;10.40;99.90
19610;DHT22;9952;47.122;-1.638;2023-03-25T07:02:12;10.40;99.90
19610;DHT22;9952;47.122;-1.638;2023-03-25T07:06:53;10.60;99.90
19610;DHT22;9952;47.122;-1.638;2023-03-25T07:11:34;10.70;99.90
19610;DHT22;9952;47.122;-1.638;2023-03-25T07:16:15;10.90;99.90
19610;DHT22;9952;47.122;-1.638;2023-03-25T07:20:56;11.00;99.90
19610;DHT22;9952;47.122;-1.638;2023-03-25T07:25:37;11.10;99.90
19610;DHT22;9952;47.122;-1.638;2023-03-25T07:30:18;11.40;99.90
19610;DHT22;9952;47.122;-1.638;2023-03-25T07:34:59;11.70;99.90
19610;DHT22;9952;47.122;-1.638;2023-03-25T07:39:39;12.30;99.90
19610;DHT22;9952;47.122;-1.638;2023-03-25T07:44:20;12.50;99.90
19610;DHT22;9952;47.122;-1.638;2023-03-25T07:49:01;12.50;99.90
19610;DHT22;9952;47.122;-1.638;2023-03-25T07:53:42;12.40;99.90
19610;DHT22;9952;47.122;-1.638;2023-03-25T07:58:24;12.30;99.90
19610;DHT22;9952;47.122;-1.638;2023-03-25T08:03:05;12.30;99.90
19610;DHT22;9952;47.122;-1.638;2023-03-25T08:07:47;12.30;99.90
19610;DHT22;9952;47.122;-1.638;2023-03-25T08:12:28;12.30;99.90
19610;DHT22;9952;47.122;-1.638;2023-03-25T08:17:09;12.30;99.90
19610;DHT22;9952;47.122;-1.638;2023-03-25T08:21:50;12.50;99.90
19610;DHT22;9952;47.122;-1.638;2023-03-25T08:26:32;12.60;99.90
19610;DHT22;9952;47.122;-1.638;2023-03-25T08:31:13;12.70;99.90
19610;DHT22;9952;47.122;-1.638;2023-03-25T08:35:56;12.80;99.90
19610;DHT22;9952;47.122;-1.638;2023-03-25T08:40:37;12.80;99.90
19610;DHT22;9952;47.122;-1.638;2023-03-25T08:45:19;12.80;99.90
19610;DHT22;9952;47.122;-1.638;2023-03-25T08:50:00;12.80;99.90
19610;DHT22;9952;47.122;-1.638;2023-03-25T08:54:40;12.80;99.90
19610;DHT22;9952;47.122;-1.638;2023-03-25T08:59:21;12.70;99.90
19610;DHT22;9952;47.122;-1.638;2023-03-25T09:04:02;12.80;99.90
19610;DHT22;9952;47.122;-1.638;2023-03-25T09:08:43;12.80;99.90
19610;DHT22;9952;47.122;-1.638;2023-03-25T09:13:24;12.80;99.90
19610;DHT22;9952;47.122;-1.638;2023-03-25T09:18:04;12.90;99.90
19610;DHT22;9952;47.122;-1.638;2023-03-25T09:22:45;12.90;99.90
19610;DHT22;9952;47.122;-1.638;2023-03-25T09:27:26;13.00;99.90
19610;DHT22;9952;47.122;-1.638;2023-03-25T09:32:07;13.30;99.90
19610;DHT22;9952;47.122;-1.638;2023-03-25T09:36:48;13.60;99.90
19610;DHT22;9952;47.122;-1.638;2023-03-25T09:42:06;14.00;99.90
19610;DHT22;9952;47.122;-1.638;2023-03-25T09:46:48;14.10;99.90
19610;DHT22;9952;47.122;-1.638;2023-03-25T09:51:32;13.90;99.90
19610;DHT22;9952;47.122;-1.638;2023-03-25T09:56:25;13.70;99.90
19610;DHT22;9952;47.122;-1.638;2023-03-25T10:06:13;13.60;99.90
19610;DHT22;9952;47.122;-1.638;2023-03-25T10:11:11;13.60;99.90
19610;DHT22;9952;47.122;-1.638;2023-03-25T10:16:00;13.60;99.90
19610;DHT22;9952;47.122;-1.638;2023-03-25T10:25:47;13.70;99.90
19610;DHT22;9952;47.122;-1.638;2023-03-25T10:30:35;13.80;99.90
19610;DHT22;9952;47.122;-1.638;2023-03-25T10:35:22;13.80;99.90
19610;DHT22;9952;47.122;-1.638;2023-03-25T10:40:15;14.00;99.90
19610;DHT22;9952;47.122;-1.638;2023-03-25T10:44:56;14.00;99.90
19610;DHT22;9952;47.122;-1.638;2023-03-25T10:49:39;14.10;99.90
19610;DHT22;9952;47.122;-1.638;2023-03-25T10:54:29;14.20;99.90
19610;DHT22;9952;47.122;-1.638;2023-03-25T10:59:24;14.50;99.90
19610;DHT22;9952;47.122;-1.638;2023-03-25T11:04:17;14.60;99.90
19610;DHT22;9952;47.122;-1.638;2023-03-25T11:09:28;14.60;99.90
19610;DHT22;9952;47.122;-1.638;2023-03-25T11:14:12;14.60;99.90
19610;DHT22;9952;47.122;-1.638;2023-03-25T11:18:53;14.60;99.90
19610;DHT22;9952;47.122;-1.638;2023-03-25T11:23:56;14.50;99.90
19610;DHT22;9952;47.122;-1.638;2023-03-25T11:28:42;14.50;99.90
19610;DHT22;9952;47.122;-1.638;2023-03-25T11:33:24;14.40;99.90
19610;DHT22;9952;47.122;-1.638;2023-03-25T11:38:21;14.50;99.90
19610;DHT22;9952;47.122;-1.638;2023-03-25T11:43:02;14.70;99.90
19610;DHT22;9952;47.122;-1.638;2023-03-25T11:47:43;14.70;99.90
19610;DHT22;9952;47.122;-1.638;2023-03-25T11:52:26;14.70;99.90
19610;DHT22;9952;47.122;-1.638;2023-03-25T11:57:21;14.70;99.90
19610;DHT22;9952;47.122;-1.638;2023-03-25T12:07:05;14.60;99.90
19610;DHT22;9952;47.122;-1.638;2023-03-25T12:47:13;15.50;99.90
19610;DHT22;9952;47.122;-1.638;2023-03-25T13:07:39;15.60;99.90
19610;DHT22;9952;47.122;-1.638;2023-03-25T13:17:47;15.50;99.90
19610;DHT22;9952;47.122;-1.638;2023-03-25T13:22:35;15.60;99.90
19610;DHT22;9952;47.122;-1.638;2023-03-25T13:27:17;15.50;99.90
19610;DHT22;9952;47.122;-1.638;2023-03-25T13:32:00;15.50;99.90
19610;DHT22;9952;47.122;-1.638;2023-03-25T13:36:50;15.50;99.90
19610;DHT22;9952;47.122;-1.638;2023-03-25T13:41:51;15.50;99.90
19610;DHT22;9952;47.122;-1.638;2023-03-25T13:47:14;15.50;99.90
19610;DHT22;9952;47.122;-1.638;2023-03-25T13:51:46;15.50;99.90
19610;DHT22;9952;47.122;-1.638;2023-03-25T14:01:35;15.60;99.90
19610;DHT22;9952;47.122;-1.638;2023-03-25T14:11:43;15.50;99.90
19610;DHT22;9952;47.122;-1.638;2023-03-25T14:16:28;15.40;99.90
19610;DHT22;9952;47.122;-1.638;2023-03-25T14:26:02;15.70;99.90
19610;DHT22;9952;47.122;-1.638;2023-03-25T14:31:06;15.80;99.90
19610;DHT22;9952;47.122;-1.638;2023-03-25T14:35:48;15.70;99.90
19610;DHT22;9952;47.122;-1.638;2023-03-25T14:50:31;15.70;99.90
19610;DHT22;9952;47.122;-1.638;2023-03-25T14:55:28;15.80;99.90
19610;DHT22;9952;47.122;-1.638;2023-03-25T15:00:22;15.60;99.90
19610;DHT22;9952;47.122;-1.638;2023-03-25T15:05:18;15.50;99.90
19610;DHT22;9952;47.122;-1.638;2023-03-25T15:10:01;15.50;99.90
19610;DHT22;9952;47.122;-1.638;2023-03-25T15:14:42;15.40;99.90
19610;DHT22;9952;47.122;-1.638;2023-03-25T15:19:22;15.10;99.90
19610;DHT22;9952;47.122;-1.638;2023-03-25T15:24:08;14.90;99.90
19610;DHT22;9952;47.122;-1.638;2023-03-25T15:53:53;14.70;99.90
19610;DHT22;9952;47.122;-1.638;2023-03-25T15:59:04;14.70;99.90
19610;DHT22;9952;47.122;-1.638;2023-03-25T16:03:55;14.60;99.90
19610;DHT22;9952;47.122;-1.638;2023-03-25T16:08:39;14.40;99.90
19610;DHT22;9952;47.122;-1.638;2023-03-25T16:13:21;14.50;99.90
19610;DHT22;9952;47.122;-1.638;2023-03-25T16:18:06;14.60;99.90
19610;DHT22;9952;47.122;-1.638;2023-03-25T16:22:50;14.50;99.90
19610;DHT22;9952;47.122;-1.638;2023-03-25T16:27:40;14.40;99.90
19610;DHT22;9952;47.122;-1.638;2023-03-25T16:32:39;14.30;99.90
19610;DHT22;9952;47.122;-1.638;2023-03-25T16:37:20;14.30;99.90
19610;DHT22;9952;47.122;-1.638;2023-03-25T16:42:06;14.30;99.90
19610;DHT22;9952;47.122;-1.638;2023-03-25T16:46:53;14.20;99.90
19610;DHT22;9952;47.122;-1.638;2023-03-25T16:52:01;14.10;99.90
19610;DHT22;9952;47.122;-1.638;2023-03-25T16:57:05;14.00;99.90
19610;DHT22;9952;47.122;-1.638;2023-03-25T17:01:52;13.90;99.90
19610;DHT22;9952;47.122;-1.638;2023-03-25T17:06:35;13.70;99.90
19610;DHT22;9952;47.122;-1.638;2023-03-25T17:11:20;13.70;99.90
19610;DHT22;9952;47.122;-1.638;2023-03-25T17:16:05;13.60;99.90
19610;DHT22;9952;47.122;-1.638;2023-03-25T17:20:48;13.50;99.90
19610;DHT22;9952;47.122;-1.638;2023-03-25T17:25:35;13.50;99.90
19610;DHT22;9952;47.122;-1.638;2023-03-25T17:30:32;13.40;99.90
19610;DHT22;9952;47.122;-1.638;2023-03-25T17:35:29;13.30;99.90
19610;DHT22;9952;47.122;-1.638;2023-03-25T17:40:22;13.30;99.90
19610;DHT22;9952;47.122;-1.638;2023-03-25T17:45:05;13.20;99.90
19610;DHT22;9952;47.122;-1.638;2023-03-25T17:49:46;13.20;99.90
19610;DHT22;9952;47.122;-1.638;2023-03-25T17:54:27;13.20;99.90
19610;DHT22;9952;47.122;-1.638;2023-03-25T17:59:21;13.20;99.90
19610;DHT22;9952;47.122;-1.638;2023-03-25T18:04:03;13.10;99.90
19610;DHT22;9952;47.122;-1.638;2023-03-25T18:08:44;13.00;99.90
19610;DHT22;9952;47.122;-1.638;2023-03-25T18:13:25;12.80;99.90
19610;DHT22;9952;47.122;-1.638;2023-03-25T18:18:20;12.60;99.90
19610;DHT22;9952;47.122;-1.638;2023-03-25T18:23:03;12.40;99.90
19610;DHT22;9952;47.122;-1.638;2023-03-25T18:27:52;12.40;99.90
19610;DHT22;9952;47.122;-1.638;2023-03-25T18:32:33;12.30;99.90
19610;DHT22;9952;47.122;-1.638;2023-03-25T18:37:15;12.10;99.90
19610;DHT22;9952;47.122;-1.638;2023-03-25T18:41:55;12.10;99.90
19610;DHT22;9952;47.122;-1.638;2023-03-25T18:46:36;12.00;99.90
19610;DHT22;9952;47.122;-1.638;2023-03-25T18:51:17;12.00;99.90
19610;DHT22;9952;47.122;-1.638;2023-03-25T18:55:59;11.70;99.90
19610;DHT22;9952;47.122;-1.638;2023-03-25T19:00:40;11.60;99.90
19610;DHT22;9952;47.122;-1.638;2023-03-25T19:05:23;11.50;99.90
19610;DHT22;9952;47.122;-1.638;2023-03-25T19:10:05;11.50;99.90
19610;DHT22;9952;47.122;-1.638;2023-03-25T19:14:46;11.40;99.90
19610;DHT22;9952;47.122;-1.638;2023-03-25T19:19:26;11.40;99.90
19610;DHT22;9952;47.122;-1.638;2023-03-25T19:24:07;11.30;99.90
19610;DHT22;9952;47.122;-1.638;2023-03-25T19:28:48;11.20;99.90
19610;DHT22;9952;47.122;-1.638;2023-03-25T19:33:29;11.10;99.90
19610;DHT22;9952;47.122;-1.638;2023-03-25T19:38:10;11.00;99.90
19610;DHT22;9952;47.122;-1.638;2023-03-25T19:42:54;10.90;99.90
19610;DHT22;9952;47.122;-1.638;2023-03-25T19:47:35;10.80;99.90
19610;DHT22;9952;47.122;-1.638;2023-03-25T19:52:22;10.70;99.90
19610;DHT22;9952;47.122;-1.638;2023-03-25T19:57:02;10.60;99.90
19610;DHT22;9952;47.122;-1.638;2023-03-25T20:01:43;10.50;99.90
19610;DHT22;9952;47.122;-1.638;2023-03-25T20:06:24;10.50;99.90
19610;DHT22;9952;47.122;-1.638;2023-03-25T20:11:09;10.40;99.90
19610;DHT22;9952;47.122;-1.638;2023-03-25T20:15:51;10.40;99.90
19610;DHT22;9952;47.122;-1.638;2023-03-25T20:20:32;10.40;99.90
19610;DHT22;9952;47.122;-1.638;2023-03-25T20:25:13;10.40;99.90
19610;DHT22;9952;47.122;-1.638;2023-03-25T20:29:55;10.40;99.90
19610;DHT22;9952;47.122;-1.638;2023-03-25T20:34:36;10.30;99.90
19610;DHT22;9952;47.122;-1.638;2023-03-25T20:39:17;10.30;99.90
19610;DHT22;9952;47.122;-1.638;2023-03-25T20:43:58;10.20;99.90
19610;DHT22;9952;47.122;-1.638;2023-03-25T20:48:39;10.30;99.90
19610;DHT22;9952;47.122;-1.638;2023-03-25T20:53:20;10.30;99.90
19610;DHT22;9952;47.122;-1.638;2023-03-25T20:58:02;10.20;99.90
19610;DHT22;9952;47.122;-1.638;2023-03-25T21:02:43;10.20;99.90
19610;DHT22;9952;47.122;-1.638;2023-03-25T21:07:29;10.10;99.90
19610;DHT22;9952;47.122;-1.638;2023-03-25T21:12:11;10.10;99.90
19610;DHT22;9952;47.122;-1.638;2023-03-25T21:16:51;10.10;99.90
19610;DHT22;9952;47.122;-1.638;2023-03-25T21:21:34;10.00;99.90
19610;DHT22;9952;47.122;-1.638;2023-03-25T21:26:15;10.00;99.90
19610;DHT22;9952;47.122;-1.638;2023-03-25T21:31:05;10.00;99.90
19610;DHT22;9952;47.122;-1.638;2023-03-25T21:35:47;10.00;99.90
19610;DHT22;9952;47.122;-1.638;2023-03-25T21:40:27;10.00;99.90
19610;DHT22;9952;47.122;-1.638;2023-03-25T21:45:11;9.90;99.90
19610;DHT22;9952;47.122;-1.638;2023-03-25T21:49:52;9.90;99.90
19610;DHT22;9952;47.122;-1.638;2023-03-25T21:54:33;9.90;99.90
19610;DHT22;9952;47.122;-1.638;2023-03-25T21:59:14;9.90;99.90
19610;DHT22;9952;47.122;-1.638;2023-03-25T22:03:56;10.00;99.90
19610;DHT22;9952;47.122;-1.638;2023-03-25T22:08:37;9.90;99.90
19610;DHT22;9952;47.122;-1.638;2023-03-25T22:13:18;10.00;99.90
19610;DHT22;9952;47.122;-1.638;2023-03-25T22:17:59;10.00;99.90
19610;DHT22;9952;47.122;-1.638;2023-03-25T22:22:40;10.00;99.90
19610;DHT22;9952;47.122;-1.638;2023-03-25T22:27:21;10.00;99.90
19610;DHT22;9952;47.122;-1.638;2023-03-25T22:32:02;10.10;99.90
19610;DHT22;9952;47.122;-1.638;2023-03-25T22:36:46;10.20;99.90
19610;DHT22;9952;47.122;-1.638;2023-03-25T22:41:32;10.30;99.90
19610;DHT22;9952;47.122;-1.638;2023-03-25T22:46:14;10.50;99.90
19610;DHT22;9952;47.122;-1.638;2023-03-25T22:50:55;10.70;99.90
19610;DHT22;9952;47.122;-1.638;2023-03-25T22:55:36;10.90;99.90
19610;DHT22;9952;47.122;-1.638;2023-03-25T23:00:17;11.00;99.90
19610;DHT22;9952;47.122;-1.638;2023-03-25T23:04:58;11.00;99.90
19610;DHT22;9952;47.122;-1.638;2023-03-25T23:09:39;11.10;99.90
19610;DHT22;9952;47.122;-1.638;2023-03-25T23:14:23;11.10;99.90
19610;DHT22;9952;47.122;-1.638;2023-03-25T23:19:05;11.30;99.90
19610;DHT22;9952;47.122;-1.638;2023-03-25T23:23:47;11.30;99.90
19610;DHT22;9952;47.122;-1.638;2023-03-25T23:28:30;11.30;99.90
19610;DHT22;9952;47.122;-1.638;2023-03-25T23:33:13;11.30;99.90
19610;DHT22;9952;47.122;-1.638;2023-03-25T23:37:54;11.40;99.90
19610;DHT22;9952;47.122;-1.638;2023-03-25T23:42:35;11.40;99.90
19610;DHT22;9952;47.122;-1.638;2023-03-25T23:47:15;11.30;99.90
19610;DHT22;9952;47.122;-1.638;2023-03-25T23:51:56;11.30;99.90
19610;DHT22;9952;47.122;-1.638;2023-03-25T23:56:40;11.10;99.90
